createdAt,value
2019-06-23T00:01:16.473Z,90.40
2019-06-23T00:03:45.115Z,90.30
2019-06-23T00:06:13.724Z,90.40
2019-06-23T00:08:42.291Z,90.30
2019-06-23T00:11:10.918Z,90.20
2019-06-23T00:13:39.463Z,90.30
2019-06-23T00:16:08.339Z,90.40
2019-06-23T00:18:36.895Z,90.30
2019-06-23T00:21:06.662Z,90.70
2019-06-23T00:23:35.468Z,90.90
2019-06-23T00:26:04.132Z,91.30
2019-06-23T00:28:32.662Z,91.00
2019-06-23T00:31:06.042Z,91.30
2019-06-23T00:33:34.599Z,91.10
2019-06-23T00:36:03.187Z,91.30
2019-06-23T00:38:31.747Z,91.30
2019-06-23T00:41:00.391Z,91.30
2019-06-23T00:43:29.033Z,91.40
2019-06-23T00:45:57.555Z,91.50
2019-06-23T00:48:26.139Z,91.70
2019-06-23T00:50:54.713Z,91.70
2019-06-23T00:53:23.307Z,91.80
2019-06-23T00:55:51.878Z,91.90
2019-06-23T00:58:20.458Z,91.90
2019-06-23T01:00:50.670Z,92.00
2019-06-23T01:03:19.267Z,91.80
2019-06-23T01:05:47.822Z,92.00
2019-06-23T01:08:16.478Z,92.10
2019-06-23T01:10:45.067Z,92.20
2019-06-23T01:13:13.647Z,92.30
2019-06-23T01:15:42.218Z,92.40
2019-06-23T01:18:10.820Z,92.40
2019-06-23T01:20:39.386Z,92.90
2019-06-23T01:23:07.990Z,92.70
2019-06-23T01:25:36.724Z,93.00
2019-06-23T01:28:05.311Z,93.20
2019-06-23T01:30:33.872Z,93.50
2019-06-23T01:33:02.488Z,93.70
2019-06-23T01:35:31.059Z,93.80
2019-06-23T01:37:59.648Z,94.10
2019-06-23T01:40:28.216Z,94.30
2019-06-23T01:42:56.803Z,94.60
2019-06-23T01:45:25.363Z,95.00
2019-06-23T01:47:53.963Z,95.10
2019-06-23T01:50:22.524Z,95.30
2019-06-23T01:52:51.114Z,95.40
2019-06-23T01:55:19.677Z,95.80
2019-06-23T01:57:48.262Z,96.10
2019-06-23T02:00:16.907Z,96.40
2019-06-23T02:02:45.494Z,96.60
2019-06-23T02:05:14.209Z,96.80
2019-06-23T02:07:42.804Z,96.90
2019-06-23T02:10:11.581Z,97.10
2019-06-23T02:12:40.172Z,97.40
2019-06-23T02:15:09.545Z,97.50
2019-06-23T02:17:38.196Z,97.90
2019-06-23T02:20:09.222Z,98.10
2019-06-23T02:22:39.513Z,98.40
2019-06-23T02:25:08.565Z,98.60
2019-06-23T02:27:37.160Z,99.00
2019-06-23T02:30:06.488Z,99.20
2019-06-23T02:32:35.074Z,99.40
2019-06-23T02:35:05.669Z,99.60
2019-06-23T02:37:34.452Z,99.90
2019-06-23T02:40:04.493Z,99.90
2019-06-23T02:42:33.093Z,99.90
2019-06-23T02:45:01.654Z,99.90
2019-06-23T02:47:40.924Z,99.90
2019-06-23T02:50:11.690Z,99.90
2019-06-23T02:52:58.087Z,99.90
2019-06-23T02:55:31.303Z,99.90
2019-06-23T02:58:04.214Z,99.90
2019-06-23T03:00:34.419Z,99.90
2019-06-23T03:03:03.028Z,99.90
2019-06-23T03:05:31.654Z,99.90
2019-06-23T03:08:00.361Z,99.90
2019-06-23T03:10:29.368Z,99.90
2019-06-23T03:12:57.954Z,99.90
2019-06-23T03:15:26.602Z,99.90
2019-06-23T03:17:55.191Z,99.90
2019-06-23T03:20:27.092Z,99.90
2019-06-23T03:22:53.977Z,99.90
2019-06-23T03:25:36.998Z,99.90
2019-06-23T03:28:06.064Z,99.90
2019-06-23T03:30:37.728Z,99.90
2019-06-23T03:33:06.528Z,99.90
2019-06-23T03:35:36.193Z,99.90
2019-06-23T03:38:05.234Z,99.90
2019-06-23T03:40:33.798Z,99.90
2019-06-23T03:43:04.527Z,99.90
2019-06-23T03:45:33.333Z,99.90
2019-06-23T03:48:02.008Z,99.90
2019-06-23T03:50:30.598Z,99.90
2019-06-23T03:52:59.162Z,99.90
2019-06-23T03:55:27.752Z,99.90
2019-06-23T03:57:56.383Z,99.90
2019-06-23T04:00:25.039Z,99.90
2019-06-23T04:02:53.609Z,99.90
2019-06-23T04:05:22.202Z,99.90
2019-06-23T04:07:50.770Z,99.90
2019-06-23T04:10:19.363Z,99.90
2019-06-23T04:12:47.920Z,99.90
2019-06-23T04:15:16.582Z,99.90
2019-06-23T04:17:45.149Z,99.90
2019-06-23T04:20:22.702Z,99.90
2019-06-23T04:22:51.339Z,99.90
2019-06-23T04:25:19.932Z,99.90
2019-06-23T04:27:48.503Z,99.90
2019-06-23T04:30:17.162Z,99.90
2019-06-23T04:32:45.722Z,99.90
2019-06-23T04:35:14.382Z,99.90
2019-06-23T04:37:42.944Z,99.90
2019-06-23T04:40:12.176Z,99.90
2019-06-23T04:42:40.749Z,99.90
2019-06-23T04:45:09.580Z,99.90
2019-06-23T04:47:38.147Z,99.90
2019-06-23T04:50:06.878Z,99.90
2019-06-23T04:52:35.442Z,99.90
2019-06-23T04:55:05.776Z,99.90
2019-06-23T04:57:34.412Z,99.90
2019-06-23T05:00:03.921Z,99.90
2019-06-23T05:02:33.315Z,99.90
2019-06-23T05:05:02.536Z,99.90
2019-06-23T05:07:31.669Z,99.90
2019-06-23T05:10:02.265Z,99.90
2019-06-23T05:12:31.258Z,99.90
2019-06-23T05:15:00.302Z,99.90
2019-06-23T05:17:29.092Z,99.90
2019-06-23T05:19:58.127Z,99.90
2019-06-23T05:22:27.011Z,99.90
2019-06-23T05:24:56.081Z,99.90
2019-06-23T05:27:24.980Z,99.90
2019-06-23T05:29:53.958Z,99.90
2019-06-23T05:32:22.984Z,99.90
2019-06-23T05:34:51.995Z,99.90
2019-06-23T05:37:21.011Z,99.90
2019-06-23T05:39:50.057Z,99.90
2019-06-23T05:42:18.816Z,99.90
2019-06-23T05:44:47.778Z,99.90
2019-06-23T05:47:16.842Z,99.90
2019-06-23T05:49:45.987Z,99.90
2019-06-23T05:52:15.055Z,99.90
2019-06-23T05:54:44.102Z,99.90
2019-06-23T05:57:13.105Z,99.90
2019-06-23T05:59:42.349Z,99.90
2019-06-23T06:02:11.299Z,99.90
2019-06-23T06:04:41.090Z,99.90
2019-06-23T06:07:10.099Z,99.90
2019-06-23T06:09:38.937Z,99.90
2019-06-23T06:12:07.975Z,99.90
2019-06-23T06:14:36.766Z,99.90
2019-06-23T06:17:05.845Z,99.90
2019-06-23T06:19:35.075Z,99.90
2019-06-23T06:22:04.379Z,99.90
2019-06-23T06:24:33.408Z,99.90
2019-06-23T06:27:02.499Z,99.90
2019-06-23T06:29:31.142Z,99.90
2019-06-23T06:31:59.726Z,99.90
2019-06-23T06:34:28.331Z,99.90
2019-06-23T06:37:09.743Z,99.90
2019-06-23T06:39:27.115Z,99.90
2019-06-23T06:41:57.474Z,99.90
2019-06-23T06:44:26.378Z,99.90
2019-06-23T06:46:55.457Z,99.90
2019-06-23T06:49:24.738Z,99.90
2019-06-23T06:51:54.002Z,99.90
2019-06-23T06:54:22.679Z,99.90
2019-06-23T06:56:51.339Z,99.90
2019-06-23T06:59:20.691Z,99.90
2019-06-23T07:01:49.266Z,99.90
2019-06-23T07:04:17.840Z,99.90
2019-06-23T07:06:46.423Z,99.90
2019-06-23T07:09:14.986Z,99.90
2019-06-23T07:11:43.587Z,99.90
2019-06-23T07:14:12.534Z,99.90
2019-06-23T07:16:41.168Z,99.90
2019-06-23T07:19:10.345Z,99.90
2019-06-23T07:21:38.892Z,99.90
2019-06-23T07:24:07.962Z,99.90
2019-06-23T07:26:36.587Z,99.90
2019-06-23T07:29:05.152Z,99.90
2019-06-23T07:31:48.781Z,99.90
2019-06-23T07:34:17.355Z,99.90
2019-06-23T07:36:45.946Z,99.90
2019-06-23T07:39:14.518Z,99.90
2019-06-23T07:41:44.041Z,99.90
2019-06-23T07:44:12.601Z,99.90
2019-06-23T07:46:41.514Z,99.90
2019-06-23T07:49:10.682Z,99.90
2019-06-23T07:51:39.493Z,99.90
2019-06-23T07:54:08.473Z,99.90
2019-06-23T07:56:37.599Z,99.90
2019-06-23T07:59:06.476Z,99.90
2019-06-23T08:01:35.190Z,99.90
2019-06-23T08:04:04.019Z,99.90
2019-06-23T08:06:32.603Z,99.90
2019-06-23T08:09:01.635Z,99.90
2019-06-23T08:11:30.566Z,99.90
2019-06-23T08:13:59.083Z,99.90
2019-06-23T08:16:27.899Z,99.90
2019-06-23T08:18:56.476Z,99.90
2019-06-23T08:21:25.069Z,99.90
2019-06-23T08:23:53.703Z,99.90
2019-06-23T08:26:22.311Z,99.90
2019-06-23T08:28:51.093Z,99.90
2019-06-23T08:31:19.756Z,99.90
2019-06-23T08:33:48.351Z,99.90
2019-06-23T08:36:18.456Z,99.90
2019-06-23T08:38:49.893Z,99.90
2019-06-23T08:41:18.912Z,99.90
2019-06-23T08:43:47.524Z,99.90
2019-06-23T08:46:16.103Z,99.90
2019-06-23T08:48:44.691Z,99.90
2019-06-23T08:51:13.759Z,99.90
2019-06-23T08:53:42.806Z,99.90
2019-06-23T08:56:11.446Z,99.90
2019-06-23T08:58:40.064Z,99.90
2019-06-23T09:01:08.711Z,99.40
2019-06-23T09:03:37.303Z,99.30
2019-06-23T09:06:05.939Z,98.80
2019-06-23T09:08:37.288Z,99.00
2019-06-23T09:11:04.813Z,99.30
2019-06-23T09:13:33.505Z,98.60
2019-06-23T09:16:02.067Z,98.60
2019-06-23T09:18:30.656Z,98.90
2019-06-23T09:20:59.232Z,98.10
2019-06-23T09:23:27.827Z,98.90
2019-06-23T09:25:56.392Z,97.90
2019-06-23T09:28:24.984Z,98.10
2019-06-23T09:30:53.563Z,97.40
2019-06-23T09:33:22.150Z,96.90
2019-06-23T09:35:50.711Z,96.90
2019-06-23T09:38:19.307Z,96.60
2019-06-23T09:40:47.878Z,96.90
2019-06-23T09:43:16.464Z,96.10
2019-06-23T09:45:45.114Z,95.40
2019-06-23T09:48:13.708Z,95.20
2019-06-23T09:50:42.651Z,95.50
2019-06-23T09:53:11.241Z,95.00
2019-06-23T09:55:39.876Z,95.10
2019-06-23T09:58:08.476Z,94.70
2019-06-23T10:00:37.034Z,94.20
2019-06-23T10:03:05.876Z,93.80
2019-06-23T10:05:34.427Z,93.60
2019-06-23T10:08:03.011Z,93.00
2019-06-23T10:10:31.584Z,92.80
2019-06-23T10:13:00.165Z,93.50
2019-06-23T10:15:28.802Z,93.40
2019-06-23T10:17:57.386Z,92.50
2019-06-23T10:20:25.959Z,92.30
2019-06-23T10:22:54.554Z,91.80
2019-06-23T10:25:23.667Z,92.00
2019-06-23T10:27:53.707Z,92.10
2019-06-23T10:30:22.373Z,91.50
2019-06-23T10:32:50.939Z,91.10
2019-06-23T10:35:19.551Z,91.70
2019-06-23T10:37:48.105Z,91.00
2019-06-23T10:40:16.973Z,92.80
2019-06-23T10:42:45.545Z,95.10
2019-06-23T10:45:14.478Z,92.90
2019-06-23T10:47:43.048Z,94.30
2019-06-23T10:50:14.387Z,93.40
2019-06-23T10:52:43.292Z,92.40
2019-06-23T10:55:12.598Z,92.10
2019-06-23T10:57:41.500Z,91.20
2019-06-23T11:00:11.088Z,89.70
2019-06-23T11:02:40.047Z,87.80
2019-06-23T11:05:09.582Z,90.60
2019-06-23T11:07:38.209Z,86.50
2019-06-23T11:10:07.693Z,88.70
2019-06-23T11:12:36.339Z,83.60
2019-06-23T11:15:06.070Z,85.60
2019-06-23T11:17:34.698Z,85.10
2019-06-23T11:20:04.566Z,80.60
2019-06-23T11:22:33.135Z,80.90
2019-06-23T11:25:01.896Z,81.40
2019-06-23T11:27:30.455Z,81.00
2019-06-23T11:29:59.043Z,80.30
2019-06-23T11:32:27.619Z,78.80
2019-06-23T11:34:56.204Z,79.60
2019-06-23T11:37:24.770Z,78.40
2019-06-23T11:39:53.363Z,79.00
2019-06-23T11:42:21.931Z,77.80
2019-06-23T11:44:50.527Z,76.50
2019-06-23T11:47:19.103Z,73.90
2019-06-23T11:49:47.696Z,82.70
2019-06-23T11:52:16.263Z,70.80
2019-06-23T11:54:44.855Z,72.60
2019-06-23T11:57:13.430Z,72.50
2019-06-23T11:59:42.023Z,68.80
2019-06-23T12:02:10.664Z,68.40
2019-06-23T12:04:39.262Z,67.90
2019-06-23T12:07:07.830Z,68.00
2019-06-23T12:09:36.492Z,67.40
2019-06-23T12:12:05.066Z,66.20
2019-06-23T12:14:33.657Z,67.60
2019-06-23T12:17:02.323Z,69.30
2019-06-23T12:19:30.925Z,65.10
2019-06-23T12:21:59.490Z,64.80
2019-06-23T12:24:28.199Z,65.50
2019-06-23T12:26:56.855Z,70.90
2019-06-23T12:29:25.419Z,63.60
2019-06-23T12:31:54.080Z,71.20
2019-06-23T12:34:22.650Z,61.70
2019-06-23T12:36:51.246Z,61.20
2019-06-23T12:39:19.818Z,61.10
2019-06-23T12:41:48.398Z,59.70
2019-06-23T12:44:16.968Z,60.40
2019-06-23T12:46:45.561Z,61.10
2019-06-23T12:49:14.128Z,67.30
2019-06-23T12:51:42.711Z,65.10
2019-06-23T12:54:11.286Z,64.10
2019-06-23T12:56:40.470Z,62.60
2019-06-23T12:59:09.039Z,56.70
2019-06-23T13:01:37.875Z,58.10
2019-06-23T13:04:06.518Z,56.60
2019-06-23T13:06:35.170Z,56.30
2019-06-23T13:09:04.791Z,60.10
2019-06-23T13:11:33.918Z,53.90
2019-06-23T13:14:02.464Z,55.10
2019-06-23T13:16:31.053Z,52.60
2019-06-23T13:18:59.686Z,53.60
2019-06-23T13:21:28.350Z,54.00
2019-06-23T13:23:56.926Z,53.30
2019-06-23T13:26:25.511Z,53.10
2019-06-23T13:28:54.074Z,56.10
2019-06-23T13:31:22.739Z,53.70
2019-06-23T13:33:51.347Z,53.70
2019-06-23T13:36:19.895Z,49.50
2019-06-23T13:38:48.463Z,50.50
2019-06-23T13:41:17.056Z,51.30
2019-06-23T13:43:45.626Z,51.90
2019-06-23T13:46:14.233Z,56.40
2019-06-23T13:48:42.967Z,51.00
2019-06-23T13:51:11.562Z,50.50
2019-06-23T13:53:40.307Z,50.60
2019-06-23T13:56:08.886Z,52.10
2019-06-23T13:58:37.464Z,50.70
2019-06-23T14:01:06.118Z,51.20
2019-06-23T14:03:34.693Z,55.40
2019-06-23T14:06:03.287Z,50.10
2019-06-23T14:08:36.898Z,49.20
2019-06-23T14:11:12.448Z,56.50
2019-06-23T14:13:32.369Z,49.20
2019-06-23T14:16:01.102Z,49.10
2019-06-23T14:18:29.675Z,49.90
2019-06-23T14:20:58.262Z,49.90
2019-06-23T14:23:26.827Z,53.60
2019-06-23T14:25:55.436Z,48.30
2019-06-23T14:28:23.986Z,47.80
2019-06-23T14:30:53.448Z,52.30
2019-06-23T14:33:22.138Z,50.10
2019-06-23T14:35:50.754Z,48.00
2019-06-23T14:38:19.314Z,46.20
2019-06-23T14:40:47.895Z,48.90
2019-06-23T14:43:16.498Z,46.30
2019-06-23T14:45:45.060Z,47.20
2019-06-23T14:48:13.654Z,48.80
2019-06-23T14:50:42.214Z,53.50
2019-06-23T14:53:10.888Z,46.70
2019-06-23T14:55:39.485Z,50.60
2019-06-23T14:58:08.042Z,48.70
2019-06-23T15:00:36.717Z,46.10
2019-06-23T15:03:05.278Z,50.60
2019-06-23T15:05:33.846Z,44.00
2019-06-23T15:08:02.586Z,44.90
2019-06-23T15:10:31.178Z,44.30
2019-06-23T15:12:59.782Z,45.00
2019-06-23T15:15:28.344Z,45.50
2019-06-23T15:17:56.946Z,44.90
2019-06-23T15:20:42.076Z,50.10
2019-06-23T15:22:55.741Z,48.20
2019-06-23T15:25:24.310Z,49.50
2019-06-23T15:27:52.899Z,47.40
2019-06-23T15:30:21.620Z,49.00
2019-06-23T15:32:50.210Z,43.60
2019-06-23T15:35:18.772Z,42.40
2019-06-23T15:37:47.355Z,47.60
2019-06-23T15:40:16.262Z,50.00
2019-06-23T15:42:44.851Z,47.30
2019-06-23T15:45:13.502Z,41.30
2019-06-23T15:47:42.099Z,48.10
2019-06-23T15:50:11.007Z,40.80
2019-06-23T15:52:39.607Z,50.60
2019-06-23T15:55:08.242Z,47.00
2019-06-23T15:57:36.839Z,45.30
2019-06-23T16:00:09.873Z,44.20
2019-06-23T16:02:38.455Z,47.30
2019-06-23T16:05:07.898Z,40.10
2019-06-23T16:07:36.463Z,39.80
2019-06-23T16:10:08.927Z,40.80
2019-06-23T16:12:37.589Z,40.20
2019-06-23T16:15:10.276Z,40.30
2019-06-23T16:17:38.936Z,40.30
2019-06-23T16:20:08.239Z,46.10
2019-06-23T16:22:36.830Z,40.80
2019-06-23T16:25:07.227Z,43.20
2019-06-23T16:27:35.808Z,42.60
2019-06-23T16:30:06.535Z,44.80
2019-06-23T16:32:35.128Z,44.50
2019-06-23T16:35:07.497Z,38.80
2019-06-23T16:37:36.902Z,36.50
2019-06-23T16:40:09.861Z,39.10
2019-06-23T16:42:38.461Z,38.00
2019-06-23T16:45:07.964Z,45.80
2019-06-23T16:47:36.555Z,42.00
2019-06-23T16:50:06.832Z,37.60
2019-06-23T16:52:50.597Z,37.40
2019-06-23T16:55:06.680Z,38.60
2019-06-23T16:57:35.309Z,44.70
2019-06-23T17:00:08.054Z,36.90
2019-06-23T17:02:36.788Z,38.50
2019-06-23T17:05:08.319Z,39.00
2019-06-23T17:07:36.908Z,38.20
2019-06-23T17:10:09.427Z,39.30
2019-06-23T17:12:49.427Z,37.20
2019-06-23T17:15:09.931Z,37.90
2019-06-23T17:17:38.524Z,36.60
2019-06-23T17:20:10.354Z,41.10
2019-06-23T17:22:39.038Z,42.20
2019-06-23T17:25:07.942Z,39.90
2019-06-23T17:27:36.511Z,41.40
2019-06-23T17:30:09.103Z,41.60
2019-06-23T17:32:38.178Z,43.10
2019-06-23T17:35:07.339Z,36.40
2019-06-23T17:37:35.911Z,35.80
2019-06-23T17:40:07.552Z,37.40
2019-06-23T17:42:36.188Z,41.70
2019-06-23T17:45:06.118Z,39.60
2019-06-23T17:47:34.683Z,35.40
2019-06-23T17:50:03.339Z,38.30
2019-06-23T17:52:31.902Z,41.10
2019-06-23T17:55:00.495Z,33.90
2019-06-23T17:57:29.062Z,38.00
2019-06-23T18:00:00.361Z,35.30
2019-06-23T18:02:27.943Z,41.90
2019-06-23T18:04:56.524Z,35.20
2019-06-23T18:07:25.099Z,36.10
2019-06-23T18:09:53.684Z,36.40
2019-06-23T18:12:22.247Z,43.70
2019-06-23T18:14:50.835Z,42.40
2019-06-23T18:17:19.403Z,38.80
2019-06-23T18:19:47.991Z,38.70
2019-06-23T18:22:16.559Z,40.00
2019-06-23T18:24:45.147Z,45.40
2019-06-23T18:27:13.711Z,45.10
2019-06-23T18:29:42.303Z,42.20
2019-06-23T18:32:10.876Z,43.70
2019-06-23T18:34:39.475Z,50.00
2019-06-23T18:37:08.039Z,44.30
2019-06-23T18:39:36.764Z,44.10
2019-06-23T18:42:05.523Z,49.10
2019-06-23T18:44:34.218Z,44.20
2019-06-23T18:47:02.870Z,44.70
2019-06-23T18:49:31.452Z,45.30
2019-06-23T18:52:00.048Z,45.40
2019-06-23T18:54:30.152Z,46.30
2019-06-23T18:56:59.372Z,46.80
2019-06-23T18:59:28.002Z,47.50
2019-06-23T19:01:56.774Z,52.00
2019-06-23T19:04:25.651Z,49.90
2019-06-23T19:06:54.647Z,49.10
2019-06-23T19:09:23.495Z,49.10
2019-06-23T19:11:52.120Z,52.10
2019-06-23T19:14:20.859Z,50.30
2019-06-23T19:16:49.839Z,50.60
2019-06-23T19:19:18.830Z,51.10
2019-06-23T19:21:47.511Z,51.60
2019-06-23T19:24:16.074Z,58.40
2019-06-23T19:26:44.783Z,52.30
2019-06-23T19:29:13.634Z,53.40
2019-06-23T19:31:42.542Z,53.10
2019-06-23T19:34:11.249Z,53.80
2019-06-23T19:36:39.940Z,58.30
2019-06-23T19:39:09.266Z,55.30
2019-06-23T19:41:38.269Z,55.60
2019-06-23T19:44:10.374Z,55.30
2019-06-23T19:46:37.690Z,56.00
2019-06-23T19:49:06.592Z,56.70
2019-06-23T19:51:35.355Z,57.20
2019-06-23T19:54:11.550Z,57.60
2019-06-23T19:56:34.516Z,57.50
2019-06-23T19:59:03.333Z,60.40
2019-06-23T20:01:32.306Z,63.90
2019-06-23T20:04:01.250Z,58.40
2019-06-23T20:06:30.307Z,58.30
2019-06-23T20:08:58.939Z,58.80
2019-06-23T20:11:27.752Z,59.00
2019-06-23T20:13:56.588Z,59.00
2019-06-23T20:16:25.565Z,58.70
2019-06-23T20:18:54.578Z,64.90
2019-06-23T20:21:23.663Z,59.30
2019-06-23T20:23:52.778Z,59.50
2019-06-23T20:26:22.070Z,59.10
2019-06-23T20:28:50.855Z,64.60
2019-06-23T20:31:19.422Z,60.30
2019-06-23T20:33:48.545Z,60.40
2019-06-23T20:36:18.505Z,61.20
2019-06-23T20:38:47.391Z,63.60
2019-06-23T20:41:16.253Z,66.80
2019-06-23T20:43:44.954Z,64.30
2019-06-23T20:46:13.583Z,61.40
2019-06-23T20:48:42.293Z,61.70
2019-06-23T20:51:11.265Z,61.80
2019-06-23T20:53:39.973Z,61.80
2019-06-23T20:56:08.679Z,62.70
2019-06-23T20:58:37.384Z,62.00
2019-06-23T21:01:06.414Z,65.40
2019-06-23T21:03:35.324Z,66.40
2019-06-23T21:06:03.983Z,64.90
2019-06-23T21:08:32.863Z,70.00
2019-06-23T21:11:03.521Z,63.60
2019-06-23T21:13:32.355Z,63.50
2019-06-23T21:16:01.589Z,63.60
2019-06-23T21:18:30.298Z,64.10
2019-06-23T21:20:59.257Z,63.80
2019-06-23T21:23:28.025Z,64.40
2019-06-23T21:25:56.668Z,64.30
2019-06-23T21:28:25.229Z,65.10
2019-06-23T21:30:53.831Z,65.80
2019-06-23T21:33:22.395Z,73.90
2019-06-23T21:35:51.094Z,71.30
2019-06-23T21:38:19.669Z,66.70
2019-06-23T21:40:48.263Z,66.50
2019-06-23T21:43:16.836Z,66.40
2019-06-23T21:45:45.431Z,66.50
2019-06-23T21:48:14.079Z,68.60
2019-06-23T21:50:42.634Z,68.80
2019-06-23T21:53:11.226Z,67.60
2019-06-23T21:55:39.800Z,68.30
2019-06-23T21:58:08.389Z,69.40
2019-06-23T22:00:49.540Z,71.90
2019-06-23T22:03:18.198Z,69.80
2019-06-23T22:05:46.760Z,71.10
2019-06-23T22:08:15.342Z,75.70
2019-06-23T22:10:43.981Z,70.90
2019-06-23T22:13:12.568Z,71.00
2019-06-23T22:15:41.140Z,71.90
2019-06-23T22:18:09.736Z,79.00
2019-06-23T22:20:38.317Z,71.60
2019-06-23T22:23:06.980Z,71.80
2019-06-23T22:25:35.555Z,71.70
2019-06-23T22:28:04.517Z,71.90
2019-06-23T22:30:33.099Z,72.30
2019-06-23T22:33:01.690Z,73.00
2019-06-23T22:35:30.283Z,73.20
2019-06-23T22:37:58.872Z,73.10
2019-06-23T22:40:27.443Z,73.30
2019-06-23T22:42:56.050Z,73.90
2019-06-23T22:45:24.615Z,73.70
2019-06-23T22:47:53.287Z,74.00
2019-06-23T22:50:21.846Z,73.80
2019-06-23T22:52:50.445Z,73.90
2019-06-23T22:55:19.016Z,73.80
2019-06-23T22:57:47.607Z,74.10
2019-06-23T23:00:17.290Z,74.20
2019-06-23T23:02:45.872Z,74.10
2019-06-23T23:05:14.571Z,73.90
2019-06-23T23:07:43.195Z,73.80
2019-06-23T23:10:11.894Z,74.20
2019-06-23T23:12:40.486Z,74.70
2019-06-23T23:15:09.798Z,74.70
2019-06-23T23:17:38.377Z,75.10
2019-06-23T23:20:07.290Z,75.10
2019-06-23T23:22:35.877Z,75.10
2019-06-23T23:25:07.345Z,75.40
2019-06-23T23:27:35.931Z,75.60
2019-06-23T23:30:06.330Z,75.80
2019-06-23T23:32:35.359Z,76.10
2019-06-23T23:35:07.407Z,76.10
2019-06-23T23:37:36.062Z,76.20
2019-06-23T23:40:08.422Z,76.60
2019-06-23T23:42:37.072Z,77.10
2019-06-23T23:45:06.170Z,77.30
2019-06-23T23:47:34.823Z,77.20
2019-06-23T23:50:04.437Z,77.40
2019-06-23T23:52:44.277Z,77.70
2019-06-23T23:55:03.674Z,77.80
2019-06-23T23:57:32.270Z,78.00
